createdAt,value
2022-11-16T00:04:02.771Z,93640.72
2022-11-16T00:09:23.335Z,93639.97
2022-11-16T00:14:27.839Z,93647.16
2022-11-16T00:19:29.878Z,93658.19
2022-11-16T00:24:31.706Z,93660.81
2022-11-16T00:29:33.582Z,93667.44
2022-11-16T00:34:35.397Z,93669.84
2022-11-16T00:39:38.678Z,93663.06
2022-11-16T00:44:40.662Z,93666.31
2022-11-16T00:49:42.690Z,93664.59
2022-11-16T00:54:44.717Z,93667.34
2022-11-16T00:59:46.771Z,93666.97
2022-11-16T01:04:48.729Z,93665.66
2022-11-16T01:09:50.706Z,93676.69
2022-11-16T01:14:52.686Z,93677.81
2022-11-16T01:19:54.808Z,93654.84
2022-11-16T01:24:56.693Z,93673.63
2022-11-16T01:29:58.967Z,93687.34
2022-11-16T01:35:01.831Z,93675.25
2022-11-16T01:40:08.149Z,93670.69
2022-11-16T01:45:24.156Z,93655.34
2022-11-16T01:50:29.596Z,93612.94
2022-11-16T02:02:55.977Z,93656.72
2022-11-16T02:09:07.139Z,93673.41
2022-11-16T02:14:46.748Z,93669.97
2022-11-16T02:20:07.987Z,93685.31
2022-11-16T02:25:21.473Z,93696.88
2022-11-16T02:30:25.398Z,93654.00
2022-11-16T02:35:32.893Z,93673.09
2022-11-16T02:40:40.502Z,93650.53
2022-11-16T02:45:49.200Z,93650.66
2022-11-16T02:50:52.998Z,93652.09
2022-11-16T02:55:56.528Z,93683.84
2022-11-16T03:01:13.582Z,93691.41
2022-11-16T03:06:21.098Z,93700.00
2022-11-16T03:11:41.736Z,93683.75
2022-11-16T03:16:47.135Z,93655.00
2022-11-16T03:22:04.600Z,93690.88
2022-11-16T03:27:15.615Z,93678.75
2022-11-16T03:32:27.648Z,93683.56
2022-11-16T03:37:30.394Z,93652.47
2022-11-16T03:42:34.195Z,93688.00
2022-11-16T03:47:36.337Z,93655.81
2022-11-16T03:52:39.138Z,93693.03
2022-11-16T03:57:41.288Z,93675.34
2022-11-16T04:02:43.449Z,93666.50
2022-11-16T04:08:10.649Z,93657.31
2022-11-16T04:13:32.018Z,93635.31
2022-11-16T04:18:52.755Z,93692.06
2022-11-16T04:24:13.268Z,93704.28
2022-11-16T04:29:15.357Z,93707.19
2022-11-16T04:34:36.040Z,93721.31
2022-11-16T04:39:39.508Z,93714.06
2022-11-16T04:45:00.685Z,93696.50
2022-11-16T04:50:08.798Z,93691.41
2022-11-16T04:55:11.767Z,93671.84
2022-11-16T05:00:14.646Z,93688.53
2022-11-16T05:05:17.110Z,93699.88
2022-11-16T05:10:21.004Z,93713.53
2022-11-16T05:15:24.867Z,93716.09
2022-11-16T05:20:47.826Z,93718.66
2022-11-16T05:25:50.271Z,93721.22
2022-11-16T05:30:52.460Z,93686.66
2022-11-16T05:35:57.774Z,93707.44
2022-11-16T05:41:00.003Z,93717.44
2022-11-16T05:46:02.838Z,93691.91
2022-11-16T05:51:04.919Z,93689.88
2022-11-16T05:56:11.507Z,93660.09
2022-11-16T06:01:14.880Z,93705.00
2022-11-16T06:06:17.855Z,93704.22
2022-11-16T06:11:20.378Z,93696.44
2022-11-16T06:16:22.315Z,93706.00
2022-11-16T06:21:24.349Z,93704.78
2022-11-16T06:26:26.867Z,93715.31
2022-11-16T06:31:29.028Z,93706.97
2022-11-16T06:36:33.046Z,93714.88
2022-11-16T06:41:41.100Z,93734.31
2022-11-16T06:46:44.463Z,93709.31
2022-11-16T06:51:46.351Z,93746.53
2022-11-16T06:56:48.502Z,93750.31
2022-11-16T07:01:52.351Z,93739.09
2022-11-16T07:06:56.096Z,93728.63
2022-11-16T07:11:58.264Z,93732.28
2022-11-16T07:17:03.925Z,93747.72
2022-11-16T07:22:09.262Z,93761.16
2022-11-16T07:27:11.663Z,93756.16
2022-11-16T07:32:18.559Z,93763.34
2022-11-16T07:38:05.001Z,93765.38
2022-11-16T07:43:07.098Z,93771.94
2022-11-16T07:48:29.266Z,93775.69
2022-11-16T07:53:57.222Z,93787.16
2022-11-16T07:58:59.749Z,93798.72
2022-11-16T08:04:02.846Z,93757.72
2022-11-16T08:09:05.219Z,93795.97
2022-11-16T08:14:09.235Z,93802.09
2022-11-16T08:19:11.372Z,93763.44
2022-11-16T08:24:13.646Z,93782.69
2022-11-16T08:29:17.681Z,93788.47
2022-11-16T08:34:28.891Z,93785.09
2022-11-16T08:39:35.007Z,93791.22
2022-11-16T08:44:37.573Z,93795.78
2022-11-16T08:49:49.361Z,93810.81
2022-11-16T08:54:52.852Z,93823.47
2022-11-16T08:59:54.955Z,93824.63
2022-11-16T09:04:57.353Z,93819.94
2022-11-16T09:09:59.425Z,93814.38
2022-11-16T09:15:01.488Z,93816.00
2022-11-16T09:20:04.061Z,93823.41
2022-11-16T09:25:06.628Z,93809.94
2022-11-16T09:37:04.391Z,93783.25
2022-11-16T09:42:24.962Z,93754.06
2022-11-16T09:47:36.173Z,93785.22
2022-11-16T09:52:37.870Z,93789.00
2022-11-16T09:57:40.047Z,93814.81
2022-11-16T10:02:49.050Z,93802.91
2022-11-16T10:08:07.027Z,93830.50
2022-11-16T10:13:08.928Z,93843.03
2022-11-16T10:18:13.911Z,93828.03
2022-11-16T10:23:22.641Z,93848.41
2022-11-16T10:28:27.821Z,93816.63
2022-11-16T10:33:36.346Z,93803.41
2022-11-16T10:38:39.755Z,93815.38
2022-11-16T10:44:51.339Z,93797.78
2022-11-16T10:49:59.840Z,93793.38
2022-11-16T10:55:01.973Z,93803.13
2022-11-16T11:00:06.657Z,93785.88
2022-11-16T11:05:16.812Z,93782.78
2022-11-16T11:10:29.184Z,93748.94
2022-11-16T11:15:31.460Z,93786.34
2022-11-16T11:20:33.436Z,93781.09
2022-11-16T11:25:37.689Z,93758.88
2022-11-16T11:30:39.656Z,93762.00
2022-11-16T11:35:41.658Z,93784.13
2022-11-16T11:41:05.334Z,93780.91
2022-11-16T11:46:15.787Z,93725.13
2022-11-16T11:51:22.860Z,93755.59
2022-11-16T11:56:26.369Z,93756.03
2022-11-16T12:01:59.507Z,93757.03
2022-11-16T12:07:07.464Z,93746.31
2022-11-16T12:12:23.023Z,93703.75
2022-11-16T12:17:39.473Z,93735.63
2022-11-16T12:23:19.772Z,93732.31
2022-11-16T12:28:40.077Z,93717.41
2022-11-16T12:33:54.910Z,93716.44
2022-11-16T12:39:27.766Z,93719.97
2022-11-16T12:44:55.939Z,93717.53
2022-11-16T12:50:07.094Z,93730.47
2022-11-16T12:55:26.390Z,93729.50
2022-11-16T13:00:35.452Z,93727.31
2022-11-16T13:05:43.556Z,93715.94
2022-11-16T13:11:36.413Z,93704.47
2022-11-16T13:16:38.752Z,93689.03
2022-11-16T13:22:04.897Z,93690.50
2022-11-16T13:27:25.157Z,93697.72
2022-11-16T13:32:35.074Z,93697.41
2022-11-16T13:37:36.858Z,93695.75
2022-11-16T13:43:01.005Z,93672.78
2022-11-16T13:48:10.638Z,93656.75
2022-11-16T13:58:47.669Z,93655.28
2022-11-16T14:04:32.661Z,93663.41
2022-11-16T14:09:49.563Z,93662.28
2022-11-16T14:15:23.903Z,93655.22
2022-11-16T14:20:32.775Z,93667.56
2022-11-16T14:25:40.895Z,93650.06
2022-11-16T14:30:55.656Z,93657.06
2022-11-16T14:35:57.762Z,93626.06
2022-11-16T14:41:02.895Z,93618.03
2022-11-16T14:46:07.907Z,93657.91
2022-11-16T14:51:47.947Z,93668.56
2022-11-16T14:56:57.995Z,93678.06
2022-11-16T15:02:05.761Z,93636.75
2022-11-16T15:07:08.576Z,93672.56
2022-11-16T15:12:37.830Z,93633.06
2022-11-16T15:17:42.517Z,93671.44
2022-11-16T15:22:45.131Z,93692.81
2022-11-16T15:27:47.106Z,93686.63
2022-11-16T15:32:50.611Z,93669.75
2022-11-16T15:38:18.551Z,93689.28
2022-11-16T15:43:23.800Z,93676.78
2022-11-16T15:48:27.463Z,93680.59
2022-11-16T15:53:40.015Z,93644.25
2022-11-16T15:58:42.740Z,93670.50
2022-11-16T16:04:01.319Z,93645.84
2022-11-16T16:09:05.546Z,93655.94
2022-11-16T16:14:10.926Z,93646.28
2022-11-16T16:19:30.335Z,93651.81
2022-11-16T16:24:38.826Z,93628.50
2022-11-16T16:29:40.920Z,93653.38
2022-11-16T16:34:43.397Z,93656.47
2022-11-16T16:39:45.604Z,93672.50
2022-11-16T16:44:48.232Z,93660.84
2022-11-16T16:49:50.153Z,93672.31
2022-11-16T16:54:52.060Z,93683.78
2022-11-16T16:59:56.350Z,93680.00
2022-11-16T17:04:58.293Z,93649.06
2022-11-16T17:10:00.482Z,93647.50
2022-11-16T17:15:02.559Z,93689.63
2022-11-16T17:20:06.238Z,93694.97
2022-11-16T17:25:09.203Z,93679.63
2022-11-16T17:30:11.879Z,93685.66
2022-11-16T17:35:14.975Z,93699.78
2022-11-16T17:40:16.974Z,93659.91
2022-11-16T17:46:26.395Z,93683.75
2022-11-16T17:51:31.255Z,93702.78
2022-11-16T17:56:33.047Z,93694.00
2022-11-16T18:01:34.982Z,93687.34
2022-11-16T18:06:37.727Z,93698.66
2022-11-16T18:11:39.996Z,93683.81
2022-11-16T18:16:43.641Z,93701.00
2022-11-16T18:21:46.022Z,93686.56
2022-11-16T18:26:47.959Z,93701.88
2022-11-16T18:31:49.952Z,93697.13
2022-11-16T18:36:51.958Z,93708.22
2022-11-16T18:41:55.225Z,93708.31
2022-11-16T18:46:57.393Z,93706.75
2022-11-16T18:52:31.362Z,93700.63
2022-11-16T18:57:33.266Z,93724.13
2022-11-16T19:02:35.891Z,93715.66
2022-11-16T19:07:37.901Z,93728.63
2022-11-16T19:12:39.985Z,93741.88
2022-11-16T19:18:06.377Z,93733.19
2022-11-16T19:30:28.253Z,93696.81
2022-11-16T19:35:30.180Z,93703.38
2022-11-16T19:40:32.123Z,93694.47
2022-11-16T19:45:34.084Z,93679.06
2022-11-16T19:50:36.423Z,93667.47
2022-11-16T19:55:38.330Z,93651.00
2022-11-16T20:00:40.281Z,93665.63
2022-11-16T20:05:42.311Z,93663.88
2022-11-16T20:10:44.332Z,93677.41
2022-11-16T20:22:33.645Z,93675.75
2022-11-16T20:27:35.484Z,93674.75
2022-11-16T20:32:37.546Z,93698.09
2022-11-16T20:37:39.369Z,93694.41
2022-11-16T20:42:41.331Z,93692.16
2022-11-16T20:47:43.477Z,93697.50
2022-11-16T20:52:49.946Z,93677.59
2022-11-16T20:57:56.345Z,93709.00
2022-11-16T21:02:58.301Z,93707.50
2022-11-16T21:08:00.327Z,93707.00
2022-11-16T21:13:20.825Z,93703.81
2022-11-16T21:18:27.848Z,93703.47
2022-11-16T21:23:33.755Z,93722.63
2022-11-16T21:28:35.859Z,93723.50
2022-11-16T21:33:37.942Z,93733.84
2022-11-16T21:38:40.116Z,93682.94
2022-11-16T21:43:42.160Z,93710.66
2022-11-16T21:48:44.612Z,93716.78
2022-11-16T21:53:48.293Z,93701.50
2022-11-16T21:58:51.234Z,93661.38
2022-11-16T22:04:11.763Z,93650.28
2022-11-16T22:09:13.753Z,93657.25
2022-11-16T22:14:16.330Z,93658.13
2022-11-16T22:19:18.407Z,93662.00
2022-11-16T22:24:20.433Z,93674.69
2022-11-16T22:29:23.027Z,93673.16
2022-11-16T22:34:25.119Z,93678.81
2022-11-16T22:39:27.283Z,93673.84
2022-11-16T22:44:29.502Z,93679.00
2022-11-16T22:49:31.438Z,93672.44
2022-11-16T22:54:34.791Z,93685.53
2022-11-16T22:59:37.047Z,93679.88
2022-11-16T23:04:41.393Z,93670.72
2022-11-16T23:17:07.688Z,93664.69
2022-11-16T23:22:33.027Z,93658.56
2022-11-16T23:27:50.862Z,93656.81
2022-11-16T23:32:52.852Z,93664.41
2022-11-16T23:45:20.600Z,93646.53
2022-11-16T23:50:22.495Z,93625.59
2022-11-16T23:55:24.368Z,93616.00
